createdAt,value
2023-05-21T00:00:59.506Z,2.3
2023-05-21T00:02:13.795Z,2.3
2023-05-21T00:03:28.067Z,1.8
2023-05-21T00:04:42.490Z,2.1
2023-05-21T00:05:56.807Z,2.2
2023-05-21T00:07:11.086Z,2
2023-05-21T00:08:25.427Z,1.8
2023-05-21T00:09:39.831Z,1.9
2023-05-21T00:10:54.167Z,1.8
2023-05-21T00:12:07.508Z,2.3
2023-05-21T00:13:21.804Z,2.1
2023-05-21T00:14:36.195Z,2.1
2023-05-21T00:15:50.528Z,2.1
2023-05-21T00:17:04.814Z,2.5
2023-05-21T00:18:19.085Z,2.3
2023-05-21T00:19:33.503Z,2.1
2023-05-21T00:20:47.825Z,2.2
2023-05-21T00:22:02.098Z,2.1
2023-05-21T00:23:16.381Z,2.2
2023-05-21T00:24:30.795Z,2.1
2023-05-21T00:25:45.108Z,2.2
2023-05-21T00:26:59.397Z,2.3
2023-05-21T00:28:13.672Z,2.1
2023-05-21T00:29:28.074Z,2.7
2023-05-21T00:30:42.395Z,2
2023-05-21T00:31:56.802Z,2.1
2023-05-21T00:33:11.130Z,2.1
2023-05-21T00:34:25.404Z,1.9
2023-05-21T00:35:39.819Z,1.8
2023-05-21T00:36:54.146Z,2.2
2023-05-21T00:38:08.427Z,2.5
2023-05-21T00:39:22.693Z,2.4
2023-05-21T00:40:37.107Z,2.1
2023-05-21T00:41:51.422Z,2.1
2023-05-21T00:43:05.700Z,2.2
2023-05-21T00:44:19.980Z,2.3
2023-05-21T00:45:34.395Z,2.6
2023-05-21T00:46:48.720Z,2
2023-05-21T00:48:03.005Z,2.3
2023-05-21T00:49:17.277Z,2.1
2023-05-21T00:50:31.694Z,2.4
2023-05-21T00:51:46.012Z,2
2023-05-21T00:53:00.297Z,2.2
2023-05-21T00:54:14.580Z,2.1
2023-05-21T00:55:28.972Z,1.9
2023-05-21T00:56:43.312Z,2.1
2023-05-21T00:57:57.579Z,2
2023-05-21T00:59:11.866Z,2.3
2023-05-21T01:00:26.270Z,2.2
2023-05-21T01:01:40.585Z,2.5
2023-05-21T01:02:54.882Z,2.2
2023-05-21T01:04:09.150Z,2.1
2023-05-21T01:05:23.564Z,2
2023-05-21T01:06:37.887Z,2.2
2023-05-21T01:07:52.161Z,2.1
2023-05-21T01:09:06.447Z,3
2023-05-21T01:10:20.859Z,2.5
2023-05-21T01:11:35.184Z,2.6
2023-05-21T01:12:49.458Z,2.3
2023-05-21T01:14:03.735Z,2.4
2023-05-21T01:15:18.136Z,2.3
2023-05-21T01:16:32.469Z,2.4
2023-05-21T01:17:46.817Z,2.2
2023-05-21T01:19:00.219Z,2.2
2023-05-21T01:20:14.556Z,2
2023-05-21T01:21:28.885Z,2.5
2023-05-21T01:22:42.237Z,2.1
2023-05-21T01:23:56.644Z,2.3
2023-05-21T01:25:10.973Z,2.4
2023-05-21T01:26:25.240Z,2.4
2023-05-21T01:27:39.533Z,2.4
2023-05-21T01:28:53.929Z,2.4
2023-05-21T01:30:08.253Z,2
2023-05-21T01:31:22.546Z,2.6
2023-05-21T01:32:36.830Z,2.5
2023-05-21T01:33:51.227Z,2.2
2023-05-21T01:35:05.557Z,2.1
2023-05-21T01:36:19.824Z,2.2
2023-05-21T01:37:34.115Z,2.1
2023-05-21T01:38:48.525Z,2.8
2023-05-21T01:40:02.846Z,2.1
2023-05-21T01:41:17.121Z,2.4
2023-05-21T01:42:31.411Z,2.6
2023-05-21T01:43:45.818Z,2.3
2023-05-21T01:45:00.139Z,2.4
2023-05-21T01:46:14.410Z,2.4
2023-05-21T01:47:28.689Z,2.9
2023-05-21T01:48:43.107Z,2.4
2023-05-21T01:49:57.432Z,2.8
2023-05-21T01:51:11.707Z,2.4
2023-05-21T01:52:25.982Z,2.2
2023-05-21T01:53:40.448Z,2.3
2023-05-21T01:54:54.787Z,1.9
2023-05-21T01:56:08.148Z,2.1
2023-05-21T01:57:22.429Z,2.3
2023-05-21T01:58:36.832Z,2.2
2023-05-21T01:59:51.147Z,2.3
2023-05-21T02:01:05.437Z,1.9
2023-05-21T02:02:19.704Z,2.3
2023-05-21T02:03:34.116Z,2.5
2023-05-21T02:04:48.443Z,2.2
2023-05-21T02:06:02.727Z,2.1
2023-05-21T02:07:16.998Z,2.3
2023-05-21T02:08:31.414Z,2.8
2023-05-21T02:09:45.734Z,2.4
2023-05-21T02:11:00.007Z,2
2023-05-21T02:12:14.291Z,2.3
2023-05-21T02:13:28.693Z,2.6
2023-05-21T02:14:43.027Z,2.5
2023-05-21T02:15:57.310Z,2.6
2023-05-21T02:17:11.586Z,2.3
2023-05-21T02:18:25.991Z,2.4
2023-05-21T02:19:40.325Z,2.4
2023-05-21T02:20:54.595Z,2.7
2023-05-21T02:22:08.888Z,2.2
2023-05-21T02:23:23.288Z,2.1
2023-05-21T02:24:37.621Z,2.2
2023-05-21T02:25:51.902Z,2.4
2023-05-21T02:27:06.231Z,2.3
2023-05-21T02:28:20.649Z,2.7
2023-05-21T02:29:34.986Z,2.2
2023-05-21T02:30:48.323Z,2.2
2023-05-21T02:32:02.615Z,2.4
2023-05-21T02:33:17.017Z,3.2
2023-05-21T02:34:31.334Z,2.5
2023-05-21T02:35:45.621Z,2.4
2023-05-21T02:36:59.850Z,2.2
2023-05-21T02:38:14.249Z,2.3
2023-05-21T02:39:28.570Z,2.4
2023-05-21T02:40:42.862Z,2.3
2023-05-21T02:41:57.148Z,2.7
2023-05-21T02:43:11.550Z,2.3
2023-05-21T02:44:25.794Z,2.4
2023-05-21T02:45:40.022Z,2.6
2023-05-21T02:46:54.238Z,2.6
2023-05-21T02:48:08.464Z,2.6
2023-05-21T02:49:22.775Z,2.3
2023-05-21T02:50:37.059Z,2.5
2023-05-21T02:51:51.299Z,2
2023-05-21T02:53:05.522Z,2.1
2023-05-21T02:54:19.748Z,2.2
2023-05-21T02:55:34.035Z,2.4
2023-05-21T02:56:48.285Z,2.4
2023-05-21T02:58:02.503Z,2.2
2023-05-21T02:59:16.737Z,2.3
2023-05-21T03:00:30.955Z,2.6
2023-05-21T03:01:45.327Z,2.3
2023-05-21T03:02:59.605Z,2.1
2023-05-21T03:04:12.902Z,2.3
2023-05-21T03:05:27.126Z,2.1
2023-05-21T03:06:41.424Z,2.6
2023-05-21T03:07:55.682Z,2.6
2023-05-21T03:09:09.899Z,2.3
2023-05-21T03:10:24.121Z,2.1
2023-05-21T03:11:38.351Z,2.2
2023-05-21T03:12:52.653Z,2.6
2023-05-21T03:14:06.894Z,2.6
2023-05-21T03:15:21.128Z,2.5
2023-05-21T03:16:35.343Z,2
2023-05-21T03:17:49.582Z,2.1
2023-05-21T03:19:03.873Z,1.9
2023-05-21T03:20:18.119Z,2.6
2023-05-21T03:21:32.331Z,2.4
2023-05-21T03:22:46.574Z,2.7
2023-05-21T03:24:00.791Z,2.5
2023-05-21T03:25:15.098Z,2.1
2023-05-21T03:26:29.345Z,2.3
2023-05-21T03:27:43.571Z,2.3
2023-05-21T03:28:57.785Z,3
2023-05-21T03:30:12.022Z,2.7
2023-05-21T03:31:26.310Z,2.6
2023-05-21T03:32:40.557Z,2.6
2023-05-21T03:33:54.774Z,2
2023-05-21T03:35:09.063Z,2.4
2023-05-21T03:36:22.374Z,2.5
2023-05-21T03:37:36.613Z,3.2
2023-05-21T03:38:50.832Z,2.9
2023-05-21T03:40:05.055Z,2.5
2023-05-21T03:41:19.278Z,2.7
2023-05-21T03:42:33.592Z,2.5
2023-05-21T03:43:47.836Z,2.4
2023-05-21T03:45:02.051Z,2.5
2023-05-21T03:46:16.287Z,2.7
2023-05-21T03:47:30.508Z,2.7
2023-05-21T03:48:44.799Z,2.3
2023-05-21T03:49:59.040Z,2.4
2023-05-21T03:51:13.274Z,2.4
2023-05-21T03:52:27.497Z,2.5
2023-05-21T03:53:41.733Z,2.2
2023-05-21T03:54:56.030Z,2.4
2023-05-21T03:56:10.266Z,2.5
2023-05-21T03:57:24.495Z,2.2
2023-05-21T03:58:38.725Z,2.3
2023-05-21T03:59:52.958Z,2.5
2023-05-21T04:01:07.242Z,2.4
2023-05-21T04:02:21.490Z,2.7
2023-05-21T04:03:35.719Z,2.5
2023-05-21T04:04:49.944Z,2.3
2023-05-21T04:06:04.166Z,2.2
2023-05-21T04:07:18.526Z,2.4
2023-05-21T04:08:32.803Z,2.4
2023-05-21T04:09:47.104Z,2.3
2023-05-21T04:11:00.399Z,2.7
2023-05-21T04:12:14.699Z,2.5
2023-05-21T04:13:28.937Z,2.2
2023-05-21T04:14:43.167Z,2.3
2023-05-21T04:15:57.393Z,2.4
2023-05-21T04:17:11.606Z,2.5
2023-05-21T04:18:25.907Z,2.8
2023-05-21T04:19:40.149Z,2.6
2023-05-21T04:20:54.380Z,2.3
2023-05-21T04:22:08.600Z,2.4
2023-05-21T04:23:22.838Z,2.7
2023-05-21T04:24:37.137Z,2.2
2023-05-21T04:25:51.375Z,2.4
2023-05-21T04:27:05.610Z,2.7
2023-05-21T04:28:19.831Z,3.1
2023-05-21T04:29:34.062Z,2.2
2023-05-21T04:30:48.344Z,2.8
2023-05-21T04:32:02.598Z,2.3
2023-05-21T04:33:16.815Z,2.2
2023-05-21T04:34:31.055Z,2.7
2023-05-21T04:35:45.279Z,2.7
2023-05-21T04:36:59.571Z,3
2023-05-21T04:38:13.819Z,2.7
2023-05-21T04:39:28.043Z,2.4
2023-05-21T04:40:42.278Z,2.9
2023-05-21T04:41:56.559Z,2.6
2023-05-21T04:43:10.852Z,2.8
2023-05-21T04:44:25.139Z,2.8
2023-05-21T04:45:38.435Z,2.6
2023-05-21T04:46:52.662Z,2.7
2023-05-21T04:48:06.958Z,2.8
2023-05-21T04:49:21.189Z,2.9
2023-05-21T04:50:35.433Z,2.5
2023-05-21T04:51:49.647Z,2.8
2023-05-21T04:53:03.884Z,2.5
2023-05-21T04:54:18.183Z,2.6
2023-05-21T04:55:32.422Z,2.7
2023-05-21T04:56:46.638Z,2.7
2023-05-21T04:58:00.877Z,3.3
2023-05-21T04:59:15.102Z,2.7
2023-05-21T05:00:29.393Z,2.2
2023-05-21T05:01:43.646Z,3
2023-05-21T05:02:57.869Z,2.3
2023-05-21T05:04:12.095Z,2.5
2023-05-21T05:05:26.320Z,2.7
2023-05-21T05:06:40.616Z,2.3
2023-05-21T05:07:54.869Z,2.3
2023-05-21T05:09:09.091Z,2.6
2023-05-21T05:10:23.306Z,2
2023-05-21T05:11:37.547Z,2.7
2023-05-21T05:12:51.828Z,2.4
2023-05-21T05:14:06.088Z,2.9
2023-05-21T05:15:20.299Z,2.6
2023-05-21T05:16:34.600Z,2.6
2023-05-21T05:17:47.881Z,2.8
2023-05-21T05:19:02.131Z,3.7
2023-05-21T05:20:16.356Z,2.7
2023-05-21T05:21:30.588Z,2.6
2023-05-21T05:22:44.803Z,2.4
2023-05-21T05:23:59.113Z,2.9
2023-05-21T05:25:13.355Z,2.6
2023-05-21T05:26:27.569Z,3.1
2023-05-21T05:27:41.809Z,2.8
2023-05-21T05:28:56.030Z,2.9
2023-05-21T05:30:10.331Z,2.6
2023-05-21T05:31:24.560Z,2.2
2023-05-21T05:32:38.784Z,2.4
2023-05-21T05:33:53.017Z,2.9
2023-05-21T05:35:07.239Z,2.7
2023-05-21T05:36:21.556Z,2.7
2023-05-21T05:37:35.791Z,2.3
2023-05-21T05:38:50.011Z,2.8
2023-05-21T05:40:04.237Z,2.9
2023-05-21T05:41:18.468Z,2.9
2023-05-21T05:42:32.767Z,2.8
2023-05-21T05:43:47.003Z,2.8
2023-05-21T05:45:01.241Z,3.1
2023-05-21T05:46:15.458Z,2.5
2023-05-21T05:47:29.692Z,2.5
2023-05-21T05:48:44.040Z,2.9
2023-05-21T05:49:58.327Z,2.8
2023-05-21T05:51:12.606Z,2.2
2023-05-21T05:52:25.909Z,2.4
2023-05-21T05:53:40.208Z,3.1
2023-05-21T05:54:54.455Z,3.1
2023-05-21T05:56:08.667Z,3
2023-05-21T05:57:22.900Z,2.8
2023-05-21T05:58:37.137Z,2.3
2023-05-21T05:59:51.440Z,2.6
2023-05-21T06:01:05.669Z,3.1
2023-05-21T06:02:19.889Z,3.3
2023-05-21T06:03:34.124Z,3.2
2023-05-21T06:04:48.344Z,2.6
2023-05-21T06:06:02.648Z,3.2
2023-05-21T06:07:16.901Z,2.9
2023-05-21T06:08:31.117Z,2.8
2023-05-21T06:09:45.343Z,2.9
2023-05-21T06:10:59.569Z,2.4
2023-05-21T06:12:13.863Z,2.5
2023-05-21T06:13:28.105Z,2.5
2023-05-21T06:14:42.329Z,2.5
2023-05-21T06:15:56.563Z,2.5
2023-05-21T06:17:10.789Z,2.7
2023-05-21T06:19:39.332Z,3
2023-05-21T06:20:53.566Z,2.8
2023-05-21T06:22:07.790Z,2.9
2023-05-21T06:23:22.145Z,3.2
2023-05-21T06:24:36.459Z,2.8
2023-05-21T06:25:50.701Z,3.2
2023-05-21T06:27:04.930Z,2.9
2023-05-21T06:28:19.151Z,2.4
2023-05-21T06:29:33.368Z,2.6
2023-05-21T06:30:47.666Z,2.9
2023-05-21T06:32:01.909Z,3.1
2023-05-21T06:33:16.142Z,2.3
2023-05-21T06:34:30.368Z,2.9
2023-05-21T06:35:44.598Z,2.8
2023-05-21T06:36:58.899Z,2.6
2023-05-21T06:38:13.128Z,2.8
2023-05-21T06:39:27.356Z,2.5
2023-05-21T06:40:41.594Z,2.6
2023-05-21T06:41:55.824Z,3
2023-05-21T06:43:10.108Z,2.3
2023-05-21T06:44:24.000Z,3
2023-05-21T06:45:38.580Z,3.2
2023-05-21T06:46:52.813Z,3.4
2023-05-21T06:48:07.039Z,3.3
2023-05-21T06:49:21.336Z,2.5
2023-05-21T06:50:35.569Z,2.6
2023-05-21T06:51:49.807Z,2.6
2023-05-21T06:53:04.025Z,3
2023-05-21T06:54:18.308Z,2.9
2023-05-21T06:55:32.617Z,3
2023-05-21T06:56:46.887Z,2.6
2023-05-21T06:58:00.198Z,2.6
2023-05-21T06:59:14.408Z,2.8
2023-05-21T07:00:28.713Z,3
2023-05-21T07:01:42.968Z,2.9
2023-05-21T07:02:57.190Z,3
2023-05-21T07:04:11.412Z,2.9
2023-05-21T07:05:25.637Z,2.5
2023-05-21T07:06:39.943Z,2.3
2023-05-21T07:07:54.173Z,2.6
2023-05-21T07:09:08.398Z,2.8
2023-05-21T07:10:22.629Z,2.9
2023-05-21T07:11:36.852Z,2.7
2023-05-21T07:12:51.167Z,2.8
2023-05-21T07:14:05.398Z,2.6
2023-05-21T07:15:19.620Z,2.7
2023-05-21T07:16:33.863Z,4
2023-05-21T07:17:48.080Z,2.7
2023-05-21T07:19:02.372Z,3.2
2023-05-21T07:20:16.616Z,3.4
2023-05-21T07:21:30.975Z,2.6
2023-05-21T07:22:45.211Z,3.3
2023-05-21T07:23:59.433Z,2.6
2023-05-21T07:25:13.723Z,3.2
2023-05-21T07:26:27.967Z,2.8
2023-05-21T07:27:42.195Z,2.9
2023-05-21T07:28:56.416Z,2.8
2023-05-21T07:30:10.655Z,3.1
2023-05-21T07:31:24.949Z,3.1
2023-05-21T07:32:39.196Z,3.2
2023-05-21T07:33:53.425Z,2.9
2023-05-21T07:35:07.648Z,2.7
2023-05-21T07:36:21.865Z,3.2
2023-05-21T07:37:36.173Z,2.6
2023-05-21T07:38:50.417Z,2.7
2023-05-21T07:40:04.646Z,2.5
2023-05-21T07:41:18.858Z,3.5
2023-05-21T07:42:33.098Z,3.1
2023-05-21T07:43:47.388Z,3
2023-05-21T07:45:01.621Z,2.9
2023-05-21T07:46:15.852Z,3
2023-05-21T07:47:30.075Z,2.7
2023-05-21T07:48:44.000Z,2.9
2023-05-21T07:49:58.614Z,3.2
2023-05-21T07:51:12.861Z,2.8
2023-05-21T07:52:27.087Z,2.5
2023-05-21T07:53:41.300Z,2.6
2023-05-21T07:54:55.529Z,3.1
2023-05-21T07:56:09.839Z,3.1
2023-05-21T07:57:24.076Z,3.7
2023-05-21T07:58:38.295Z,2.1
2023-05-21T07:59:52.514Z,2.5
2023-05-21T08:01:06.750Z,3.2
2023-05-21T08:02:21.044Z,3.4
2023-05-21T08:03:35.297Z,3.1
2023-05-21T08:04:49.521Z,3.2
2023-05-21T08:06:03.738Z,2.5
2023-05-21T08:07:18.037Z,3.1
2023-05-21T08:08:32.328Z,3.3
2023-05-21T08:09:46.614Z,3
2023-05-21T08:10:59.935Z,2.7
2023-05-21T08:12:13.000Z,3.2
2023-05-21T08:13:27.472Z,2.9
2023-05-21T08:14:41.717Z,2.9
2023-05-21T08:15:55.926Z,3.5
2023-05-21T08:17:10.166Z,2.7
2023-05-21T08:18:24.454Z,3.1
2023-05-21T08:19:38.699Z,2.6
2023-05-21T08:20:52.935Z,3
2023-05-21T08:22:07.158Z,3.6
2023-05-21T08:23:21.388Z,3.1
2023-05-21T08:24:35.679Z,3
2023-05-21T08:25:49.924Z,2.9
2023-05-21T08:27:04.146Z,3.3
2023-05-21T08:28:18.378Z,2.9
2023-05-21T08:29:32.610Z,2.6
2023-05-21T08:30:46.895Z,2.8
2023-05-21T08:32:01.148Z,3
2023-05-21T08:33:15.361Z,3.5
2023-05-21T08:34:29.601Z,3
2023-05-21T08:35:43.819Z,3.1
2023-05-21T08:36:58.116Z,3.1
2023-05-21T08:38:12.366Z,2.7
2023-05-21T08:39:26.583Z,3
2023-05-21T08:40:40.808Z,3.4
2023-05-21T08:41:55.045Z,3
2023-05-21T08:43:09.403Z,2.7
2023-05-21T08:44:23.686Z,3.1
2023-05-21T08:45:36.987Z,2.9
2023-05-21T08:46:51.202Z,3.2
2023-05-21T08:48:05.503Z,3.1
2023-05-21T08:49:19.756Z,3.5
2023-05-21T08:50:33.977Z,3
2023-05-21T08:51:48.335Z,2.9
2023-05-21T08:53:02.550Z,3
2023-05-21T08:54:16.851Z,3.4
2023-05-21T08:55:31.106Z,3.1
2023-05-21T08:56:45.311Z,2.9
2023-05-21T08:57:59.538Z,3.1
2023-05-21T08:59:13.774Z,2.9
2023-05-21T09:00:28.078Z,3.3
2023-05-21T09:01:42.312Z,3.2
2023-05-21T09:02:56.548Z,2.9
2023-05-21T09:04:10.765Z,3.5
2023-05-21T09:05:24.987Z,3.6
2023-05-21T09:06:39.300Z,3
2023-05-21T09:07:53.538Z,3.1
2023-05-21T09:09:07.755Z,3
2023-05-21T09:10:21.987Z,2.7
2023-05-21T09:11:36.222Z,3.2
2023-05-21T09:12:50.514Z,3.1
2023-05-21T09:14:04.757Z,3.4
2023-05-21T09:15:18.978Z,2.8
2023-05-21T09:16:33.196Z,3.6
2023-05-21T09:17:47.435Z,3.4
2023-05-21T09:19:01.727Z,3.3
2023-05-21T09:20:15.965Z,3
2023-05-21T09:21:30.340Z,3.1
2023-05-21T09:22:44.561Z,3.2
2023-05-21T09:23:58.803Z,3.8
2023-05-21T09:25:13.105Z,3.6
2023-05-21T09:26:27.341Z,3.2
2023-05-21T09:27:41.572Z,3.2
2023-05-21T09:28:55.784Z,3.3
2023-05-21T09:30:10.028Z,2.8
2023-05-21T09:31:24.310Z,3.3
2023-05-21T09:32:38.563Z,3.4
2023-05-21T09:33:52.781Z,3.2
2023-05-21T09:35:07.000Z,3
2023-05-21T09:36:21.245Z,3.5
2023-05-21T09:37:35.544Z,3
2023-05-21T09:38:49.774Z,3.7
2023-05-21T09:40:04.002Z,3.2
2023-05-21T09:41:18.240Z,3.5
2023-05-21T09:42:32.463Z,3.4
2023-05-21T09:43:46.769Z,3.6
2023-05-21T09:45:01.006Z,3.6
2023-05-21T09:46:15.224Z,3.3
2023-05-21T09:47:29.458Z,3.5
2023-05-21T09:48:43.692Z,3.5
2023-05-21T09:49:57.976Z,3.3
2023-05-21T09:51:12.219Z,3.4
2023-05-21T09:52:26.518Z,3.2
2023-05-21T09:53:39.808Z,3.6
2023-05-21T09:54:54.111Z,3.2
2023-05-21T09:56:08.344Z,3.1
2023-05-21T09:57:22.581Z,3.5
2023-05-21T09:58:36.800Z,3.2
2023-05-21T09:59:51.026Z,3.5
2023-05-21T10:01:05.330Z,3.5
2023-05-21T10:02:19.573Z,3.6
2023-05-21T10:03:33.797Z,3.4
2023-05-21T10:04:48.026Z,3.3
2023-05-21T10:06:02.245Z,3.5
2023-05-21T10:07:16.560Z,3.5
2023-05-21T10:08:30.795Z,3.4
2023-05-21T10:09:45.033Z,3.8
2023-05-21T10:10:59.371Z,3.3
2023-05-21T10:12:13.605Z,3.3
2023-05-21T10:13:27.907Z,3.3
2023-05-21T10:15:56.366Z,3.6
2023-05-21T10:17:10.603Z,3.7
2023-05-21T10:18:24.817Z,3.3
2023-05-21T10:19:39.117Z,3.6
2023-05-21T10:20:53.365Z,3.1
2023-05-21T10:22:07.598Z,3.3
2023-05-21T10:23:21.824Z,3.1
2023-05-21T10:24:36.040Z,3.6
2023-05-21T10:25:50.341Z,4.1
2023-05-21T10:27:04.595Z,3.2
2023-05-21T10:28:18.808Z,4.1
2023-05-21T10:29:33.000Z,3.9
2023-05-21T10:30:47.263Z,3.6
2023-05-21T10:32:01.582Z,3.4
2023-05-21T10:33:15.808Z,3.5
2023-05-21T10:34:30.035Z,3.9
2023-05-21T10:35:44.275Z,3.5
2023-05-21T10:36:58.492Z,4
2023-05-21T10:38:12.801Z,3.1
2023-05-21T10:39:27.043Z,4
2023-05-21T10:40:41.260Z,3.3
2023-05-21T10:41:55.497Z,3.1
2023-05-21T10:43:09.715Z,3.8
2023-05-21T10:44:24.022Z,3.6
2023-05-21T10:45:38.257Z,3.9
2023-05-21T10:46:52.492Z,3.7
2023-05-21T10:48:06.716Z,3.9
2023-05-21T10:49:20.938Z,3.3
2023-05-21T10:50:35.246Z,4.3
2023-05-21T10:51:49.477Z,3.3
2023-05-21T10:53:03.707Z,3.6
2023-05-21T10:54:17.930Z,3.3
2023-05-21T10:55:32.163Z,4.2
2023-05-21T10:56:46.533Z,4
2023-05-21T10:58:00.815Z,3.2
2023-05-21T10:59:14.137Z,3
2023-05-21T11:00:28.419Z,3.3
2023-05-21T11:01:42.714Z,4.1
2023-05-21T11:02:56.997Z,3.6
2023-05-21T11:04:11.000Z,3.6
2023-05-21T11:05:25.574Z,3.3
2023-05-21T11:06:39.850Z,3.3
2023-05-21T11:07:54.160Z,4.4
2023-05-21T11:09:08.445Z,3.6
2023-05-21T11:10:22.720Z,3.7
2023-05-21T11:11:37.007Z,3.9
2023-05-21T11:12:51.304Z,3.6
2023-05-21T11:14:05.599Z,3.3
2023-05-21T11:15:19.875Z,4.2
2023-05-21T11:16:33.219Z,3.3
2023-05-21T11:17:47.497Z,3.4
2023-05-21T11:19:01.793Z,4
2023-05-21T11:20:16.070Z,3.5
2023-05-21T11:21:29.374Z,4
2023-05-21T11:22:43.607Z,3.8
2023-05-21T11:23:57.908Z,4.1
2023-05-21T11:25:12.144Z,4.1
2023-05-21T11:26:26.378Z,3.7
2023-05-21T11:27:40.595Z,4
2023-05-21T11:28:54.819Z,3.6
2023-05-21T11:30:09.117Z,3.5
2023-05-21T11:31:23.374Z,3.8
2023-05-21T11:32:37.591Z,3.7
2023-05-21T11:33:51.818Z,3.7
2023-05-21T11:35:06.038Z,4.2
2023-05-21T11:36:20.354Z,3.3
2023-05-21T11:37:34.591Z,3.9
2023-05-21T11:38:48.815Z,3.6
2023-05-21T11:40:03.048Z,3.8
2023-05-21T11:41:17.268Z,3.7
2023-05-21T11:42:31.573Z,4.2
2023-05-21T11:43:45.812Z,3.7
2023-05-21T11:45:00.042Z,3.1
2023-05-21T11:46:14.266Z,3.6
2023-05-21T11:47:28.499Z,3.3
2023-05-21T11:48:42.795Z,3.9
2023-05-21T11:49:57.030Z,4.3
2023-05-21T11:51:11.265Z,4
2023-05-21T11:52:25.540Z,4.3
2023-05-21T11:53:38.844Z,4.3
2023-05-21T11:54:53.082Z,3.8
2023-05-21T11:56:07.321Z,3.6
2023-05-21T11:57:21.535Z,3.5
2023-05-21T11:58:35.758Z,4
2023-05-21T11:59:50.071Z,4.1
2023-05-21T12:01:04.305Z,3.8
2023-05-21T12:02:18.544Z,3.4
2023-05-21T12:03:32.762Z,3.8
2023-05-21T12:04:46.980Z,3.5
2023-05-21T12:06:01.294Z,3.5
2023-05-21T12:07:15.534Z,4
2023-05-21T12:08:29.753Z,3.9
2023-05-21T12:09:43.987Z,4.1
2023-05-21T12:10:58.206Z,4
2023-05-21T12:12:12.504Z,4.1
2023-05-21T12:13:26.758Z,3.9
2023-05-21T12:14:40.972Z,4.1
2023-05-21T12:15:55.202Z,3.4
2023-05-21T12:17:09.433Z,3.8
2023-05-21T12:18:23.724Z,3.7
2023-05-21T12:19:37.969Z,3.1
2023-05-21T12:20:52.203Z,3.6
2023-05-21T12:22:06.419Z,4.1
2023-05-21T12:23:20.647Z,3.5
2023-05-21T12:24:35.009Z,3.7
2023-05-21T12:25:49.293Z,3.7
2023-05-21T12:27:02.603Z,3.4
2023-05-21T12:28:16.834Z,3.7
2023-05-21T12:29:31.122Z,3
2023-05-21T12:31:59.585Z,3.8
2023-05-21T12:33:13.815Z,3.2
2023-05-21T12:34:28.047Z,4.5
2023-05-21T12:35:42.348Z,4.1
2023-05-21T12:36:56.587Z,4
2023-05-21T12:39:25.037Z,3.5
2023-05-21T12:40:39.272Z,3.7
2023-05-21T12:41:53.565Z,4.1
2023-05-21T12:43:07.806Z,4.5
2023-05-21T12:44:22.031Z,3.6
2023-05-21T12:45:36.257Z,4.4
2023-05-21T12:46:50.486Z,3.6
2023-05-21T12:48:04.784Z,4.5
2023-05-21T12:49:19.030Z,3.9
2023-05-21T12:50:33.248Z,3.3
2023-05-21T12:51:47.486Z,4
2023-05-21T12:53:01.718Z,3.6
2023-05-21T12:54:16.017Z,3.9
2023-05-21T12:55:30.251Z,3.9
2023-05-21T12:56:44.490Z,3.7
2023-05-21T12:57:58.771Z,3.4
2023-05-21T12:59:12.051Z,3.4
2023-05-21T13:00:26.309Z,3.7
2023-05-21T13:01:40.533Z,3.6
2023-05-21T13:02:54.764Z,3.7
2023-05-21T13:04:08.983Z,4
2023-05-21T13:05:23.276Z,3.3
2023-05-21T13:06:37.521Z,3.5
2023-05-21T13:07:51.749Z,4.4
2023-05-21T13:09:05.971Z,3.7
2023-05-21T13:11:34.511Z,3.9
2023-05-21T13:12:48.751Z,3.5
2023-05-21T13:14:02.964Z,3.6
2023-05-21T13:15:17.202Z,3.2
2023-05-21T13:16:31.433Z,3.2
2023-05-21T13:17:45.737Z,3.5
2023-05-21T13:18:59.973Z,3.8
2023-05-21T13:20:14.186Z,3.5
2023-05-21T13:21:28.427Z,3.4
2023-05-21T13:22:42.657Z,3.2
2023-05-21T13:23:56.943Z,3.4
2023-05-21T13:25:11.197Z,3.3
2023-05-21T13:26:25.415Z,3.9
2023-05-21T13:27:39.652Z,3.8
2023-05-21T13:28:53.863Z,3.6
2023-05-21T13:30:08.232Z,4
2023-05-21T13:31:22.522Z,3.5
2023-05-21T13:32:35.853Z,4
2023-05-21T13:33:49.152Z,3.8
2023-05-21T13:35:03.382Z,4.1
2023-05-21T13:36:17.604Z,3.3
2023-05-21T13:37:31.837Z,3.7
2023-05-21T13:38:46.070Z,4.1
2023-05-21T13:40:00.373Z,4.4
2023-05-21T13:41:14.603Z,3.9
2023-05-21T13:42:28.831Z,4.1
2023-05-21T13:43:43.061Z,3.6
2023-05-21T13:44:57.290Z,3.6
2023-05-21T13:46:11.581Z,4
2023-05-21T13:47:25.821Z,3.6
2023-05-21T13:48:40.055Z,3.6
2023-05-21T13:49:54.279Z,3.9
2023-05-21T13:51:08.512Z,4.1
2023-05-21T13:52:22.808Z,4.3
2023-05-21T13:53:37.050Z,4.1
2023-05-21T13:54:51.287Z,4.1
2023-05-21T13:56:05.513Z,3.8
2023-05-21T13:57:19.739Z,3.8
2023-05-21T13:58:34.029Z,4.6
2023-05-21T13:59:48.274Z,4
2023-05-21T14:02:16.730Z,4.1
2023-05-21T14:03:30.963Z,3.9
2023-05-21T14:04:45.317Z,4.1
2023-05-21T14:05:59.603Z,3.8
2023-05-21T14:07:12.902Z,3.5
2023-05-21T14:08:27.125Z,3.4
2023-05-21T14:09:41.432Z,4.1
2023-05-21T14:10:55.665Z,3.5
2023-05-21T14:12:09.894Z,3.7
2023-05-21T14:13:24.110Z,4.1
2023-05-21T14:14:38.347Z,3.9
2023-05-21T14:15:52.640Z,3.7
2023-05-21T14:17:06.889Z,3.6
2023-05-21T14:18:21.118Z,4.2
2023-05-21T14:19:35.333Z,3.9
2023-05-21T14:20:49.574Z,3.7
2023-05-21T14:22:03.866Z,3.5
2023-05-21T14:23:18.111Z,4
2023-05-21T14:24:32.345Z,3.8
2023-05-21T14:25:46.563Z,4
2023-05-21T14:27:00.795Z,4.1
2023-05-21T14:28:15.092Z,4.1
2023-05-21T14:29:29.334Z,3.7
2023-05-21T14:30:43.561Z,4
2023-05-21T14:31:57.791Z,3.8
2023-05-21T14:33:12.006Z,4.8
2023-05-21T14:34:26.309Z,4.1
2023-05-21T14:35:40.561Z,4.4
2023-05-21T14:36:54.787Z,3.8
2023-05-21T14:38:09.059Z,3.7
2023-05-21T14:39:22.398Z,4.5
2023-05-21T14:40:36.675Z,4
2023-05-21T14:41:50.975Z,4
2023-05-21T14:43:05.253Z,3.2
2023-05-21T14:44:19.529Z,4
2023-05-21T14:45:33.826Z,4.5
2023-05-21T14:46:48.110Z,4.1
2023-05-21T14:48:02.402Z,4.1
2023-05-21T14:49:16.685Z,4.1
2023-05-21T14:50:30.965Z,4.1
2023-05-21T14:51:45.280Z,4
2023-05-21T14:52:59.544Z,4.2
2023-05-21T14:54:13.837Z,4.2
2023-05-21T14:55:27.179Z,3.7
2023-05-21T14:56:41.475Z,3.9
2023-05-21T14:57:55.756Z,4.3
2023-05-21T14:59:10.029Z,3.8
2023-05-21T15:00:24.328Z,3.9
2023-05-21T15:01:38.606Z,3.8
2023-05-21T15:02:52.903Z,3.9
2023-05-21T15:04:07.184Z,4.5
2023-05-21T15:05:20.482Z,4
2023-05-21T15:06:34.705Z,3.7
2023-05-21T15:07:49.020Z,3.9
2023-05-21T15:09:03.254Z,4.1
2023-05-21T15:10:17.595Z,4.5
2023-05-21T15:11:31.838Z,3.9
2023-05-21T15:12:46.053Z,3.7
2023-05-21T15:14:00.351Z,4.2
2023-05-21T15:15:14.594Z,3.9
2023-05-21T15:16:28.822Z,4
2023-05-21T15:17:43.051Z,4
2023-05-21T15:18:57.276Z,4
2023-05-21T15:20:11.586Z,4.1
2023-05-21T15:21:25.813Z,4.1
2023-05-21T15:22:40.046Z,4.3
2023-05-21T15:23:54.267Z,4.1
2023-05-21T15:25:08.503Z,3.8
2023-05-21T15:26:22.803Z,5
2023-05-21T15:27:37.047Z,4.5
2023-05-21T15:28:51.275Z,3.5
2023-05-21T15:30:05.485Z,4.2
2023-05-21T15:31:19.709Z,4.4
2023-05-21T15:32:34.025Z,4.3
2023-05-21T15:33:48.269Z,3.9
2023-05-21T15:35:02.491Z,4.1
2023-05-21T15:36:16.720Z,4.6
2023-05-21T15:37:30.933Z,4.4
2023-05-21T15:38:45.250Z,4.2
2023-05-21T15:39:59.491Z,3.9
2023-05-21T15:41:13.704Z,4.8
2023-05-21T15:42:27.926Z,3.9
2023-05-21T15:43:42.159Z,4.2
2023-05-21T15:44:56.466Z,4.4
2023-05-21T15:46:10.701Z,4.6
2023-05-21T15:47:24.937Z,4.4
2023-05-21T15:48:39.149Z,4.3
2023-05-21T15:49:53.383Z,4.3
2023-05-21T15:51:07.688Z,4
2023-05-21T15:52:21.923Z,4.4
2023-05-21T15:53:36.152Z,4.2
2023-05-21T15:54:50.376Z,4.5
2023-05-21T15:56:04.664Z,4
2023-05-21T15:57:18.954Z,5.4
2023-05-21T15:58:33.248Z,4.2
2023-05-21T15:59:46.569Z,4.2
2023-05-21T16:01:00.868Z,4.4
2023-05-21T16:02:15.158Z,4.3
2023-05-21T16:03:29.449Z,4.3
2023-05-21T16:04:42.788Z,4.7
2023-05-21T16:05:57.071Z,3.7
2023-05-21T16:07:11.369Z,4.7
2023-05-21T16:08:25.647Z,4.1
2023-05-21T16:09:39.946Z,4.8
2023-05-21T16:10:54.226Z,4
2023-05-21T16:12:08.498Z,4.2
2023-05-21T16:13:22.796Z,5
2023-05-21T16:14:37.096Z,4.2
2023-05-21T16:15:50.374Z,4.3
2023-05-21T16:17:04.616Z,4.3
2023-05-21T16:18:18.912Z,4.5
2023-05-21T16:19:33.161Z,4.8
2023-05-21T16:20:47.387Z,4.6
2023-05-21T16:22:01.721Z,4.3
2023-05-21T16:23:15.951Z,3.9
2023-05-21T16:24:30.260Z,4.5
2023-05-21T16:25:44.498Z,4.8
2023-05-21T16:26:58.715Z,5.1
2023-05-21T16:28:12.946Z,4.4
2023-05-21T16:29:27.173Z,4.4
2023-05-21T16:30:41.466Z,4.1
2023-05-21T16:31:55.718Z,4
2023-05-21T16:33:09.943Z,4.6
2023-05-21T16:34:24.179Z,4.1
2023-05-21T16:35:38.398Z,4.4
2023-05-21T16:36:52.698Z,4.2
2023-05-21T16:38:06.928Z,4.8
2023-05-21T16:39:21.171Z,4.1
2023-05-21T16:40:35.386Z,4.6
2023-05-21T16:41:49.607Z,4.2
2023-05-21T16:43:03.920Z,4.3
2023-05-21T16:44:18.160Z,4
2023-05-21T16:45:32.377Z,4.1
2023-05-21T16:46:46.603Z,4.7
2023-05-21T16:48:00.849Z,4.1
2023-05-21T16:49:15.146Z,4.3
2023-05-21T16:50:29.388Z,4.1
2023-05-21T16:51:43.610Z,4.9
2023-05-21T16:52:57.841Z,5.2
2023-05-21T16:54:12.063Z,4
2023-05-21T16:55:26.353Z,4.1
2023-05-21T16:57:54.827Z,4.1
2023-05-21T16:59:09.049Z,4.8
2023-05-21T17:00:23.275Z,4
2023-05-21T17:01:37.583Z,4.2
2023-05-21T17:02:51.820Z,4.1
2023-05-21T17:04:06.052Z,4.5
2023-05-21T17:05:20.283Z,4.7
2023-05-21T17:06:34.510Z,4.2
2023-05-21T17:07:48.853Z,4.8
2023-05-21T17:09:03.139Z,4.3
2023-05-21T17:10:16.474Z,4.1
2023-05-21T17:11:30.749Z,4.5
2023-05-21T17:12:45.062Z,4.7
2023-05-21T17:13:59.344Z,4.2
2023-05-21T17:15:13.623Z,4.2
2023-05-21T17:16:27.902Z,4
2023-05-21T17:17:42.195Z,4.1